Flight Number: EUR3027 Duration: 7:00
Departure: John F Kennedy Int'l (KJFK) at 00:00 Distance: 3014 Nm
Arrival: Tel Aviv Ben Gurion (LLBG) at 07:00 Equipment: B777

Weather Information
KENNEDY INTERNATIONAL AIRPORT , NY, United States (KJFK) 40-38N 073-46W 9M Jan 22, 2018 - 02:51 AM EST / 2018.01.22 0751 UTC
Wind: from the ESE (110 degrees) at 3 MPH (3 KT):0
Visibility: 10 mile(s):0
Sky conditions: overcast Precipitation last hour: A trace Temperature: 42.1 F (5.6 C) Dew Point: 39.9 F (4.4 C) Relative Humidity: 91% Pressure (altimeter): 30.16 in. Hg (1021 hPa)
ob: KJFK 220751Z 11003KT 10SM OVC055 06/04 A3016 RMK AO2 RAE00B18E37 SLP213 P0000 T00560044 cycle: 8
Sunrise: 12:15 Sunset: 21:57 (UTC)

Ben-Gurion International Airport, Israel (LLBG) 32-00N 034-54E 49M Jan 22, 2018 - 02:50 AM EST / 2018.01.22 0750 UTC
Wind: from the S (180 degrees) at 14 MPH (12 KT):0
Visibility: 5 mile(s):0 Temperature: 62 F (17 C) Dew Point: 44 F (7 C) Relative Humidity: 51% Pressure (altimeter): 29.91 in. Hg (1013 hPa)
ob: LLBG 220750Z 18012KT 9000 NSC 17/07 Q1013 NOSIG cycle: 8
Sunrise: 04:42 Sunset: 15:02 (UTC)

TAF:2018/01/22 06:12 TAF TAF LLBG 220506Z 2206/2306 17007KT CAVOK BECMG 2207/2209 23012KT 7000 PROB40 2209/2215 23018KT 5000 HZ BECMG 2215/2217 17010KT BECMG 2220/2222 SCT030 TEMPO 2300/2306 21015KT SHRA FEW025TCU BKN030 TX19/2211Z TN12/2304Z

This route has never been flown.

Route map